Time;durP1;ratioP1;P1;durP2;ratioP2;P2;SDS_P1;SDS_P2;PMS_P1;PMS_P2;Temp;Humidity;BMP_temperature;BMP_pressure;BME280_temperature;BME280_humidity;BME280_pressure;Samples;Min_cycle;Max_cycle;Signal;HPM_P1;HPM_P2
2022/06/07 00:00:15;;;;;;;;;;;;;;;24.22;54.67;99980.06;2087959;28;20353;-66
2022/06/07 00:01:16;;;;;;;;;;;;;;;24.23;54.77;99995.56;2089454;28;19939;-66
2022/06/07 00:02:24;;;;;;;;;;;;;;;24.23;54.68;100009.34;2085636;28;20399;-66
2022/06/07 00:03:25;;;;;;;;;;;;;;;24.22;54.72;100004.84;2084687;28;19916;-66
2022/06/07 00:04:25;;;;;;;;;;;;;;;24.23;54.66;100003.81;2091475;28;19962;-66
2022/06/07 00:05:25;;;;;;;;;;;;;;;24.23;54.68;100014.84;2091771;28;19962;-66
2022/06/07 00:06:26;;;;;;;;;;;;;;;24.22;54.80;100013.13;2088454;28;19916;-66
2022/06/07 00:07:27;;;;;;;;;;;;;;;24.22;54.72;100007.59;2091280;28;19912;-66
2022/06/07 00:08:30;;;;;;;;;;;;;;;24.23;54.77;100013.97;2090468;28;19956;-66
2022/06/07 00:09:30;;;;;;;;;;;;;;;24.22;54.86;100002.09;2092519;28;19920;-66
2022/06/07 00:10:30;;;;;;;;;;;;;;;24.21;54.91;99989.38;2090638;28;20632;-65
2022/06/07 00:11:31;;;;;;;;;;;;;;;24.20;55.01;99990.41;2090260;28;19924;-66
2022/06/07 00:12:31;;;;;;;;;;;;;;;24.20;54.96;99993.16;2091872;28;19916;-66
2022/06/07 00:13:32;;;;;;;;;;;;;;;24.20;55.24;99993.16;2091870;28;19939;-66
2022/06/07 00:14:34;;;;;;;;;;;;;;;24.20;55.25;100001.41;2092372;28;19915;-66
2022/06/07 00:15:34;;;;;;;;;;;;;;;24.20;55.32;100008.84;2085465;28;19923;-66
2022/06/07 00:16:35;;;;;;;;;;;;;;;24.19;55.23;100002.47;2091680;28;19923;-66
2022/06/07 00:17:35;;;;;;;;;;;;;;;24.18;55.47;100001.63;2096359;28;19916;-66
2022/06/07 00:18:35;;;;;;;;;;;;;;;24.19;55.42;99996.97;2090920;28;19962;-66
2022/06/07 00:19:36;;;;;;;;;;;;;;;24.18;55.52;99978.75;2097469;28;19977;-66
2022/06/07 00:20:37;;;;;;;;;;;;;;;24.18;55.76;99967.72;2087147;28;19949;-66
2022/06/07 00:21:37;;;;;;;;;;;;;;;24.18;55.63;99962.22;2098627;28;19908;-66
2022/06/07 00:22:38;;;;;;;;;;;;;;;24.17;55.73;99960.50;2085430;28;19966;-66
2022/06/07 00:23:38;;;;;;;;;;;;;;;24.18;55.71;99956.72;2089554;28;19909;-66
2022/06/07 00:24:39;;;;;;;;;;;;;;;24.18;55.74;99960.31;2090193;28;20292;-66
2022/06/07 00:25:40;;;;;;;;;;;;;;;24.17;55.63;99966.00;2093898;28;19908;-66
2022/06/07 00:26:41;;;;;;;;;;;;;;;24.17;55.75;99966.84;2099010;28;19935;-66
2022/06/07 00:27:42;;;;;;;;;;;;;;;24.17;55.75;99966.00;2094447;28;19960;-66
2022/06/07 00:28:42;;;;;;;;;;;;;;;24.18;55.78;99967.72;2094175;28;19995;-66
2022/06/07 00:29:45;;;;;;;;;;;;;;;24.19;55.75;99969.44;2084664;28;19944;-66
2022/06/07 00:30:45;;;;;;;;;;;;;;;24.17;55.78;99966.84;2086420;28;19939;-66
2022/06/07 00:31:46;;;;;;;;;;;;;;;24.18;55.80;99962.22;2090300;28;19916;-66
2022/06/07 00:32:46;;;;;;;;;;;;;;;24.18;55.80;99964.97;2091286;28;20023;-66
2022/06/07 00:33:46;;;;;;;;;;;;;;;24.18;55.76;99956.72;2093097;28;19916;-66
2022/06/07 00:34:47;;;;;;;;;;;;;;;24.18;55.74;99959.47;2095159;28;19920;-66
2022/06/07 00:35:48;;;;;;;;;;;;;;;24.17;55.67;99952.22;2090510;28;19916;-66
2022/06/07 00:36:48;;;;;;;;;;;;;;;24.18;55.67;99948.44;2092330;28;19920;-66
2022/06/07 00:37:48;;;;;;;;;;;;;;;24.17;55.67;99947.56;2091908;28;19920;-66
2022/06/07 00:38:49;;;;;;;;;;;;;;;24.18;55.49;99946.56;2092295;28;19954;-66
2022/06/07 00:39:49;;;;;;;;;;;;;;;24.19;55.65;99947.41;2097187;28;19919;-66
2022/06/07 00:40:49;;;;;;;;;;;;;;;24.19;55.66;99947.41;2093978;28;19920;-66
2022/06/07 00:41:50;;;;;;;;;;;;;;;24.18;55.74;99942.94;2098963;28;19922;-66
2022/06/07 00:42:50;;;;;;;;;;;;;;;24.17;55.73;99933.81;2091693;28;20644;-66
2022/06/07 00:44:09;;;;;;;;;;;;;;;24.18;55.51;99945.69;2094721;28;19984;-66
2022/06/07 00:45:14;;;;;;;;;;;;;;;24.18;55.66;99951.22;2091923;28;19962;-66
2022/06/07 00:46:16;;;;;;;;;;;;;;;24.17;55.59;99942.06;2100756;28;20972;-66
2022/06/07 00:47:18;;;;;;;;;;;;;;;24.18;55.57;99937.44;2095156;28;19916;-66
2022/06/07 00:48:19;;;;;;;;;;;;;;;24.18;55.62;99940.19;2092518;28;19940;-66
2022/06/07 00:49:20;;;;;;;;;;;;;;;24.17;55.53;99950.31;2095668;28;20024;-66
2022/06/07 00:50:37;;;;;;;;;;;;;;;24.17;55.63;99943.97;2096429;28;19946;-66
2022/06/07 00:51:39;;;;;;;;;;;;;;;24.17;55.62;99932.94;2090382;28;19916;-66
2022/06/07 00:52:39;;;;;;;;;;;;;;;24.17;55.61;99954.97;2099757;28;19912;-66
2022/06/07 00:53:39;;;;;;;;;;;;;;;24.16;55.59;99943.13;2094182;28;20386;-66
2022/06/07 00:54:40;;;;;;;;;;;;;;;24.16;55.69;99947.78;2092406;28;19916;-66
2022/06/07 00:55:41;;;;;;;;;;;;;;;24.16;55.80;99942.28;2093783;28;19919;-66
2022/06/07 00:56:41;;;;;;;;;;;;;;;24.16;55.90;99947.78;2091402;28;20637;-66
2022/06/07 00:57:42;;;;;;;;;;;;;;;24.16;55.86;99947.78;2095274;28;20314;-66
2022/06/07 00:58:42;;;;;;;;;;;;;;;24.16;55.83;99947.78;2093451;28;20573;-66
2022/06/07 00:59:42;;;;;;;;;;;;;;;24.16;56.01;99951.38;2092918;28;19916;-66
2022/06/07 01:00:43;;;;;;;;;;;;;;;24.16;56.05;99947.78;2091509;28;19951;-66
2022/06/07 01:01:43;;;;;;;;;;;;;;;24.16;56.06;99947.78;2086553;28;19946;-66
2022/06/07 01:02:43;;;;;;;;;;;;;;;24.16;56.07;99947.78;2094061;28;19962;-66
2022/06/07 01:03:44;;;;;;;;;;;;;;;24.16;56.09;99947.78;2092843;28;19958;-66
2022/06/07 01:04:44;;;;;;;;;;;;;;;24.16;56.08;99947.78;2086725;28;19923;-66
2022/06/07 01:05:44;;;;;;;;;;;;;;;24.16;55.99;99950.53;2085174;28;19920;-66
2022/06/07 01:10:46;;;;;;;;;;;;;;;24.15;56.05;99946.91;2092117;28;19916;-66
2022/06/07 01:11:46;;;;;;;;;;;;;;;24.15;56.00;99944.13;2091064;28;19916;-66
2022/06/07 01:12:47;;;;;;;;;;;;;;;24.16;55.89;99950.53;2092208;28;19916;-66
2022/06/07 01:13:47;;;;;;;;;;;;;;;24.16;55.91;99950.53;2095977;28;19988;-66
2022/06/07 01:14:47;;;;;;;;;;;;;;;24.15;55.93;99946.06;2087823;28;20663;-66
2022/06/07 01:15:48;;;;;;;;;;;;;;;24.16;55.87;99953.28;2090448;28;19923;-66
2022/06/07 01:16:48;;;;;;;;;;;;;;;24.16;55.94;99953.28;2094513;28;20710;-66
2022/06/07 01:17:49;;;;;;;;;;;;;;;24.16;55.87;99947.78;2086359;28;19924;-66
2022/06/07 01:18:49;;;;;;;;;;;;;;;24.15;55.84;99952.41;2094204;28;19916;-66
2022/06/07 01:19:49;;;;;;;;;;;;;;;24.15;55.93;99952.41;2093164;28;19923;-66
2022/06/07 01:21:08;;;;;;;;;;;;;;;24.16;55.79;99950.53;2076498;28;19951;-66
2022/06/07 01:22:08;;;;;;;;;;;;;;;24.16;55.67;99953.28;2083555;28;19908;-66
2022/06/07 01:23:08;;;;;;;;;;;;;;;24.15;55.87;99946.91;2086121;28;20346;-66
2022/06/07 01:24:09;;;;;;;;;;;;;;;24.15;55.92;99946.06;2081243;28;19917;-66
2022/06/07 01:25:09;;;;;;;;;;;;;;;24.15;55.79;99957.91;2083359;28;19908;-66
2022/06/07 01:26:10;;;;;;;;;;;;;;;24.16;55.94;99945.03;2084576;28;19921;-66
2022/06/07 01:27:11;;;;;;;;;;;;;;;24.15;55.89;99952.41;2085282;28;19928;-66
2022/06/07 01:28:11;;;;;;;;;;;;;;;24.16;55.93;99953.28;2089303;28;19912;-66
2022/06/07 01:29:13;;;;;;;;;;;;;;;24.15;56.11;99951.56;2090913;28;19916;-66
2022/06/07 01:30:14;;;;;;;;;;;;;;;24.15;56.03;99957.06;2091180;28;19973;-66
2022/06/07 01:31:14;;;;;;;;;;;;;;;24.15;56.08;99954.31;2095362;28;19966;-66
2022/06/07 01:32:15;;;;;;;;;;;;;;;24.14;56.25;99949.84;2088180;28;19954;-66
2022/06/07 01:33:15;;;;;;;;;;;;;;;24.14;56.24;99947.09;2093295;28;20554;-66
2022/06/07 01:34:16;;;;;;;;;;;;;;;24.15;56.14;99951.56;2090607;28;20430;-66
2022/06/07 01:35:16;;;;;;;;;;;;;;;24.13;56.23;99950.88;2092534;28;19966;-66
2022/06/07 01:36:17;;;;;;;;;;;;;;;24.14;56.31;99947.09;2087027;28;20057;-66
2022/06/07 01:37:18;;;;;;;;;;;;;;;24.13;56.34;99948.13;2096876;28;19920;-66
2022/06/07 01:38:19;;;;;;;;;;;;;;;24.12;56.38;99947.28;2092100;28;19914;-66
2022/06/07 01:41:57;;;;;;;;;;;;;;;24.12;56.33;99924.41;2098089;28;19916;-66
2022/06/07 01:42:57;;;;;;;;;;;;;;;24.13;56.33;99938.00;2093158;28;19915;-66
2022/06/07 01:43:59;;;;;;;;;;;;;;;24.13;56.31;99928.84;2093590;28;20479;-66
2022/06/07 01:44:59;;;;;;;;;;;;;;;24.13;56.27;99939.88;2086546;28;20374;-66
2022/06/07 01:46:05;;;;;;;;;;;;;;;24.13;56.18;99939.88;2094563;28;19979;-66
2022/06/07 01:47:07;;;;;;;;;;;;;;;24.13;56.24;99937.13;2092413;28;20622;-66
2022/06/07 01:48:07;;;;;;;;;;;;;;;24.13;56.31;99934.34;2097406;28;20019;-66
2022/06/07 01:49:08;;;;;;;;;;;;;;;24.13;56.22;99931.59;2085657;28;20312;-66
2022/06/07 01:50:09;;;;;;;;;;;;;;;24.13;56.34;99928.84;2094741;28;19912;-66
2022/06/07 01:51:09;;;;;;;;;;;;;;;24.12;56.33;99938.16;2092165;28;19961;-66
2022/06/07 01:52:10;;;;;;;;;;;;;;;24.14;56.09;99938.84;2087826;28;20397;-66
2022/06/07 01:53:11;;;;;;;;;;;;;;;24.12;56.17;99941.78;2091006;28;20372;-66
2022/06/07 01:54:12;;;;;;;;;;;;;;;24.13;56.13;99939.88;2084466;28;19917;-66
2022/06/07 01:55:12;;;;;;;;;;;;;;;24.13;56.19;99932.50;2090066;28;20397;-66
2022/06/07 01:56:14;;;;;;;;;;;;;;;24.12;56.29;99938.16;2089872;28;20611;-66
2022/06/07 01:57:14;;;;;;;;;;;;;;;24.14;56.35;99938.84;2093840;28;19920;-66
2022/06/07 01:58:16;;;;;;;;;;;;;;;24.13;56.17;99937.13;2089135;28;19915;-66
2022/06/07 01:59:17;;;;;;;;;;;;;;;24.12;56.11;99932.66;2092187;28;19915;-66
2022/06/07 02:00:18;;;;;;;;;;;;;;;24.13;56.28;99926.97;2086572;28;19916;-66
2022/06/07 02:01:19;;;;;;;;;;;;;;;24.13;56.33;99923.34;2086115;28;19924;-66
2022/06/07 02:02:19;;;;;;;;;;;;;;;24.13;56.32;99929.72;2084972;28;19924;-66
2022/06/07 02:03:19;;;;;;;;;;;;;;;24.11;56.36;99923.56;2083675;28;19915;-66
2022/06/07 02:04:21;;;;;;;;;;;;;;;24.12;56.37;99921.66;2079706;28;20405;-66
2022/06/07 02:05:21;;;;;;;;;;;;;;;24.11;56.38;99926.31;2094120;28;20378;-66
2022/06/07 02:06:22;;;;;;;;;;;;;;;24.11;56.40;99922.69;2092991;28;20290;-66
2022/06/07 02:07:22;;;;;;;;;;;;;;;24.10;56.54;99926.47;2094477;28;19966;-66
2022/06/07 02:08:23;;;;;;;;;;;;;;;24.11;56.57;99922.69;2089776;28;19916;-66
2022/06/07 02:09:24;;;;;;;;;;;;;;;24.10;56.49;99919.06;2092676;28;19961;-66
2022/06/07 02:10:24;;;;;;;;;;;;;;;24.09;56.62;99917.38;2093616;28;20392;-66
2022/06/07 02:11:27;;;;;;;;;;;;;;;24.10;56.58;99930.09;2083194;28;19986;-66
2022/06/07 02:12:27;;;;;;;;;;;;;;;24.09;56.69;99916.53;2084744;28;19923;-66
2022/06/07 02:13:27;;;;;;;;;;;;;;;24.09;56.61;99919.28;2093194;28;19923;-66
2022/06/07 02:14:28;;;;;;;;;;;;;;;24.10;56.66;99923.72;2087155;28;19955;-66
2022/06/07 02:15:29;;;;;;;;;;;;;;;24.09;56.75;99920.13;2096229;28;20007;-66
2022/06/07 02:16:29;;;;;;;;;;;;;;;24.10;56.72;99920.97;2089651;28;19916;-66
2022/06/07 02:17:29;;;;;;;;;;;;;;;24.10;56.61;99929.22;2097211;28;20647;-66
2022/06/07 02:18:30;;;;;;;;;;;;;;;24.09;56.62;99925.63;2087843;28;20725;-65
2022/06/07 02:19:30;;;;;;;;;;;;;;;24.10;56.53;99937.50;2091332;28;20401;-66
2022/06/07 02:20:30;;;;;;;;;;;;;;;24.10;56.41;99940.25;2089358;28;20025;-66
2022/06/07 02:21:31;;;;;;;;;;;;;;;24.11;56.42;99944.72;2092724;28;19923;-66
2022/06/07 02:22:31;;;;;;;;;;;;;;;24.10;56.54;99941.09;2094361;28;20309;-66
2022/06/07 02:23:33;;;;;;;;;;;;;;;24.10;56.45;99941.09;2089425;28;19977;-66
2022/06/07 02:24:33;;;;;;;;;;;;;;;24.10;56.45;99938.34;2093168;28;20064;-66
2022/06/07 02:25:47;;;;;;;;;;;;;;;24.10;56.51;99943.00;2097169;28;19916;-66
2022/06/07 02:26:53;;;;;;;;;;;;;;;24.10;56.46;99948.50;2095092;28;19916;-66
2022/06/07 02:27:53;;;;;;;;;;;;;;;24.10;56.43;99946.59;2094151;28;19915;-66
2022/06/07 02:28:56;;;;;;;;;;;;;;;24.10;56.49;99943.84;2091291;28;19959;-66
2022/06/07 02:29:57;;;;;;;;;;;;;;;24.10;56.49;99943.00;2091570;28;19916;-66
2022/06/07 02:30:58;;;;;;;;;;;;;;;24.11;56.52;99939.22;2089824;28;19916;-66
2022/06/07 02:32:00;;;;;;;;;;;;;;;24.09;56.36;99939.41;2088059;28;20493;-66
2022/06/07 02:33:00;;;;;;;;;;;;;;;24.09;56.58;99933.03;2095148;28;19927;-66
2022/06/07 02:34:01;;;;;;;;;;;;;;;24.10;56.31;99937.50;2094056;28;19922;-66
2022/06/07 02:35:03;;;;;;;;;;;;;;;24.09;56.52;99933.03;2089297;28;20375;-66
2022/06/07 02:36:05;;;;;;;;;;;;;;;24.09;56.50;99930.28;2094581;28;19916;-66
2022/06/07 02:37:06;;;;;;;;;;;;;;;24.09;56.61;99919.28;2095890;28;19959;-66
2022/06/07 02:38:07;;;;;;;;;;;;;;;24.09;56.59;99913.78;2093427;28;19920;-66
2022/06/07 02:39:08;;;;;;;;;;;;;;;24.08;56.63;99917.53;2096650;28;19915;-66
2022/06/07 02:40:08;;;;;;;;;;;;;;;24.09;56.63;99913.78;2097456;28;19923;-66
2022/06/07 02:41:10;;;;;;;;;;;;;;;24.08;56.59;99920.31;2096668;28;19923;-66
2022/06/07 02:42:12;;;;;;;;;;;;;;;24.09;56.54;99922.03;2097093;28;20554;-66
2022/06/07 02:43:13;;;;;;;;;;;;;;;24.09;56.46;99919.28;2095084;28;20362;-66
2022/06/07 02:44:13;;;;;;;;;;;;;;;24.08;56.45;99920.31;2099425;28;20753;-66
2022/06/07 02:45:13;;;;;;;;;;;;;;;24.09;56.49;99916.53;2092237;28;19916;-66
2022/06/07 02:46:14;;;;;;;;;;;;;;;24.09;56.50;99922.88;2092002;28;19916;-66
2022/06/07 02:47:14;;;;;;;;;;;;;;;24.09;56.49;99920.13;2091959;28;19923;-66
2022/06/07 02:48:15;;;;;;;;;;;;;;;24.09;56.43;99919.28;2090548;28;19920;-66
2022/06/07 02:49:16;;;;;;;;;;;;;;;24.09;56.58;99920.13;2091250;28;19965;-66
2022/06/07 02:50:17;;;;;;;;;;;;;;;24.08;56.50;99917.53;2094238;28;20002;-66
2022/06/07 02:51:17;;;;;;;;;;;;;;;24.08;56.44;99915.66;2090075;28;19961;-66
2022/06/07 02:52:18;;;;;;;;;;;;;;;24.10;56.51;99920.97;2093040;28;19908;-66
2022/06/07 02:53:19;;;;;;;;;;;;;;;24.09;56.47;99922.03;2094421;28;19958;-64
2022/06/07 02:54:19;;;;;;;;;;;;;;;24.09;56.60;99930.28;2087049;28;20954;-66
2022/06/07 02:55:19;;;;;;;;;;;;;;;24.09;56.36;99935.78;2088213;28;20402;-66
2022/06/07 02:56:20;;;;;;;;;;;;;;;24.08;56.52;99934.06;2094211;28;20294;-66
2022/06/07 02:57:20;;;;;;;;;;;;;;;24.09;56.47;99935.78;2091288;28;20040;-66
2022/06/07 02:58:20;;;;;;;;;;;;;;;24.09;56.54;99933.03;2094974;28;19922;-66
2022/06/07 02:59:21;;;;;;;;;;;;;;;24.09;56.65;99930.28;2093731;28;19963;-66
2022/06/07 03:00:21;;;;;;;;;;;;;;;24.08;56.59;99934.06;2089447;28;19922;-66
2022/06/07 03:01:22;;;;;;;;;;;;;;;24.08;56.76;99934.06;2085214;28;20344;-66
2022/06/07 03:02:22;;;;;;;;;;;;;;;24.08;56.65;99934.06;2085205;28;19955;-66
2022/06/07 03:03:22;;;;;;;;;;;;;;;24.08;56.74;99934.06;2089742;28;20363;-66
2022/06/07 03:04:23;;;;;;;;;;;;;;;24.06;56.71;99930.66;2092899;28;21013;-65
2022/06/07 03:05:23;;;;;;;;;;;;;;;24.07;56.71;99932.38;2095425;28;19931;-66
2022/06/07 03:06:23;;;;;;;;;;;;;;;24.07;56.72;99919.44;2086498;28;19922;-66
2022/06/07 03:07:24;;;;;;;;;;;;;;;24.07;56.89;99927.72;2090133;28;19977;-65
2022/06/07 03:08:24;;;;;;;;;;;;;;;24.07;56.71;99915.84;2084264;28;19923;-65
2022/06/07 03:09:25;;;;;;;;;;;;;;;24.07;56.86;99926.88;2087984;28;20518;-66
2022/06/07 03:10:25;;;;;;;;;;;;;;;24.07;56.77;99930.47;2086857;28;19917;-66
2022/06/07 03:11:25;;;;;;;;;;;;;;;24.07;56.76;99932.38;2094514;28;20015;-66
2022/06/07 03:12:26;;;;;;;;;;;;;;;24.07;56.74;99932.38;2088726;28;20319;-65
2022/06/07 03:13:26;;;;;;;;;;;;;;;24.07;56.62;99932.38;2089760;28;19951;-66
2022/06/07 03:14:27;;;;;;;;;;;;;;;24.07;56.84;99932.38;2093006;28;20895;-65
2022/06/07 03:15:28;;;;;;;;;;;;;;;24.06;56.75;99925.16;2089600;28;20415;-65
2022/06/07 03:16:28;;;;;;;;;;;;;;;24.07;56.63;99932.38;2093343;28;20017;-68
2022/06/07 03:17:29;;;;;;;;;;;;;;;24.06;56.72;99925.16;2083842;28;20068;-66
2022/06/07 03:18:29;;;;;;;;;;;;;;;24.06;56.73;99937.03;2081475;28;20468;-67
2022/06/07 03:19:29;;;;;;;;;;;;;;;24.07;56.59;99921.34;2090995;28;20013;-66
2022/06/07 03:20:30;;;;;;;;;;;;;;;24.07;56.83;99926.88;2085255;28;20489;-66
2022/06/07 03:21:30;;;;;;;;;;;;;;;24.07;56.69;99932.38;2085092;28;19915;-66
2022/06/07 03:22:31;;;;;;;;;;;;;;;24.06;56.80;99927.91;2084600;28;20003;-66
2022/06/07 03:23:31;;;;;;;;;;;;;;;24.07;56.83;99933.22;2085777;28;19916;-66
2022/06/07 03:24:32;;;;;;;;;;;;;;;24.06;56.64;99927.91;2088028;28;19926;-66
2022/06/07 03:25:32;;;;;;;;;;;;;;;24.07;56.85;99926.88;2091194;28;20406;-67
2022/06/07 03:26:33;;;;;;;;;;;;;;;24.07;56.75;99926.88;2087804;28;19919;-66
2022/06/07 03:27:35;;;;;;;;;;;;;;;24.08;56.76;99928.56;2084350;28;19916;-66
2022/06/07 03:28:35;;;;;;;;;;;;;;;24.07;56.69;99926.88;2084925;28;20569;-66
2022/06/07 03:29:37;;;;;;;;;;;;;;;24.08;56.74;99931.31;2085610;28;19916;-66
2022/06/07 03:30:38;;;;;;;;;;;;;;;24.07;56.75;99937.88;2084417;28;19917;-67
2022/06/07 03:31:39;;;;;;;;;;;;;;;24.09;57.06;99935.78;2088653;28;20390;-65
2022/06/07 03:32:39;;;;;;;;;;;;;;;24.09;57.00;99938.56;2092756;28;20364;-66
2022/06/07 03:33:40;;;;;;;;;;;;;;;24.10;57.07;99940.25;2084900;28;19927;-66
2022/06/07 03:34:40;;;;;;;;;;;;;;;24.08;57.22;99945.09;2087480;28;19919;-66
2022/06/07 03:35:41;;;;;;;;;;;;;;;24.08;57.20;99951.47;2093080;28;19920;-65
2022/06/07 03:36:41;;;;;;;;;;;;;;;24.08;57.20;99947.84;2090178;28;19963;-66
2022/06/07 03:37:42;;;;;;;;;;;;;;;24.09;57.14;99946.81;2090138;28;19916;-66
2022/06/07 03:38:43;;;;;;;;;;;;;;;24.08;57.20;99945.09;2085846;28;19982;-66
2022/06/07 03:39:43;;;;;;;;;;;;;;;24.07;57.13;99943.38;2090296;28;19926;-65
2022/06/07 03:40:44;;;;;;;;;;;;;;;24.07;57.26;99954.41;2087362;28;20376;-63
2022/06/07 03:41:45;;;;;;;;;;;;;;;24.06;57.55;99952.69;2091295;28;20818;-63
2022/06/07 03:42:45;;;;;;;;;;;;;;;24.05;57.96;99948.22;2091058;28;19961;-63
2022/06/07 03:43:46;;;;;;;;;;;;;;;24.04;57.98;99944.63;2116113;22;19919;-53
2022/06/07 03:44:48;;;;;;;;;;;;;;;24.01;58.45;99949.63;2075748;28;20431;-53
2022/06/07 03:45:48;;;;;;;;;;;;;;;23.98;58.61;99941.75;2080122;28;19920;-52
2022/06/07 03:46:49;;;;;;;;;;;;;;;23.93;58.77;99939.53;2082068;28;19916;-52
2022/06/07 03:47:49;;;;;;;;;;;;;;;23.86;59.16;99936.69;2079473;28;19921;-53
2022/06/07 03:48:50;;;;;;;;;;;;;;;23.86;59.04;99942.19;2081899;28;20136;-53
2022/06/07 03:49:51;;;;;;;;;;;;;;;23.86;59.29;99944.94;2079796;28;19962;-52
2022/06/07 03:50:52;;;;;;;;;;;;;;;23.86;59.19;99944.06;2084990;28;19927;-52
2022/06/07 03:51:52;;;;;;;;;;;;;;;23.87;59.17;99954.91;2081470;28;19916;-53
2022/06/07 03:52:53;;;;;;;;;;;;;;;23.90;59.23;99953.69;2083455;28;20331;-52
2022/06/07 03:53:53;;;;;;;;;;;;;;;23.92;59.05;99946.09;2085066;28;20157;-53
2022/06/07 03:54:54;;;;;;;;;;;;;;;23.93;58.98;99948.69;2082449;28;20175;-51
2022/06/07 03:55:54;;;;;;;;;;;;;;;23.94;58.86;99950.38;2083172;28;19920;-54
2022/06/07 03:56:54;;;;;;;;;;;;;;;23.95;58.81;99951.22;2077808;28;19909;-53
2022/06/07 03:57:55;;;;;;;;;;;;;;;23.96;58.83;99952.97;2078522;28;19916;-53
2022/06/07 03:58:56;;;;;;;;;;;;;;;23.96;58.66;99959.31;2085446;28;20313;-53
2022/06/07 03:59:56;;;;;;;;;;;;;;;23.99;58.63;99957.22;2077955;28;20329;-53
2022/06/07 04:00:57;;;;;;;;;;;;;;;23.99;58.60;99960.00;2075392;28;19927;-54
2022/06/07 04:01:58;;;;;;;;;;;;;;;23.99;58.45;99957.22;2077109;28;20708;-54
2022/06/07 04:02:58;;;;;;;;;;;;;;;24.00;58.22;99964.44;2074741;28;20339;-53
2022/06/07 04:04:03;;;;;;;;;;;;;;;24.01;58.23;99960.63;2085572;28;19969;-53
2022/06/07 04:05:04;;;;;;;;;;;;;;;24.01;58.35;99960.63;2084143;28;19916;-53
2022/06/07 04:06:04;;;;;;;;;;;;;;;24.00;58.06;99958.94;2083366;28;19909;-53
2022/06/07 04:08:25;;;;;;;;;;;;;;;24.00;57.98;99958.94;2084841;28;19913;-54
2022/06/07 04:09:25;;;;;;;;;;;;;;;24.00;58.08;99961.69;2086267;28;19948;-54
2022/06/07 04:10:26;;;;;;;;;;;;;;;24.00;58.01;99959.78;2084808;28;19916;-53
2022/06/07 04:11:27;;;;;;;;;;;;;;;24.00;58.00;99967.19;2082934;28;19912;-53
2022/06/07 04:12:28;;;;;;;;;;;;;;;24.01;57.95;99957.88;2084289;28;19916;-56
2022/06/07 04:13:29;;;;;;;;;;;;;;;24.01;58.00;99963.38;2083052;28;19920;-53
2022/06/07 04:14:29;;;;;;;;;;;;;;;24.01;57.93;99968.88;2083467;28;19926;-52
2022/06/07 04:15:30;;;;;;;;;;;;;;;24.01;57.90;99966.13;2085147;28;19908;-53
2022/06/07 04:16:30;;;;;;;;;;;;;;;24.01;57.89;99966.13;2080565;28;19917;-53
2022/06/07 04:17:31;;;;;;;;;;;;;;;24.01;57.91;99974.41;2084415;28;19921;-53
2022/06/07 04:18:31;;;;;;;;;;;;;;;24.01;58.00;99971.63;2083237;28;19920;-53
2022/06/07 04:19:35;;;;;;;;;;;;;;;24.02;57.90;99970.63;2081952;28;20322;-53
2022/06/07 04:20:35;;;;;;;;;;;;;;;24.01;57.88;99966.13;2083436;28;19981;-53
2022/06/07 04:21:36;;;;;;;;;;;;;;;24.01;57.80;99971.63;2087078;28;20653;-53
2022/06/07 04:22:36;;;;;;;;;;;;;;;24.01;57.90;99969.78;2087233;28;20446;-52
2022/06/07 04:23:36;;;;;;;;;;;;;;;24.01;57.77;99966.13;2081566;28;20116;-53
2022/06/07 04:24:37;;;;;;;;;;;;;;;24.02;57.78;99965.97;2074690;28;19924;-53
2022/06/07 04:25:39;;;;;;;;;;;;;;;24.02;57.73;99965.13;2075541;28;19913;-53
2022/06/07 04:26:39;;;;;;;;;;;;;;;24.02;57.81;99970.63;2082078;28;20485;-52
2022/06/07 04:27:40;;;;;;;;;;;;;;;24.01;57.81;99972.53;2077127;28;20001;-52
2022/06/07 04:28:41;;;;;;;;;;;;;;;24.01;57.89;99966.13;2083267;28;19999;-53
2022/06/07 04:29:41;;;;;;;;;;;;;;;24.01;57.84;99971.63;2083067;28;20009;-53
2022/06/07 04:30:43;;;;;;;;;;;;;;;24.01;57.87;99977.16;2084399;28;19924;-53
2022/06/07 04:31:44;;;;;;;;;;;;;;;24.01;57.77;99977.16;2086699;28;19995;-53
2022/06/07 04:32:47;;;;;;;;;;;;;;;24.00;57.88;99970.78;2082887;28;20279;-53
2022/06/07 04:33:48;;;;;;;;;;;;;;;24.00;57.78;99972.69;2085085;28;19916;-53
2022/06/07 04:34:48;;;;;;;;;;;;;;;24.01;57.77;99977.16;2083324;28;19916;-51
2022/06/07 04:35:49;;;;;;;;;;;;;;;24.00;57.76;99975.44;2085178;28;19916;-53
2022/06/07 04:36:49;;;;;;;;;;;;;;;24.00;57.82;99980.97;2083090;28;19916;-53
2022/06/07 04:37:50;;;;;;;;;;;;;;;23.99;57.78;99982.88;2084979;28;19982;-53
2022/06/07 04:38:50;;;;;;;;;;;;;;;23.99;57.77;99979.25;2078186;28;19951;-53
2022/06/07 04:39:51;;;;;;;;;;;;;;;24.00;57.73;99986.47;2078719;28;19916;-53
2022/06/07 04:40:51;;;;;;;;;;;;;;;24.00;57.76;99989.22;2077509;28;19916;-53
2022/06/07 04:41:51;;;;;;;;;;;;;;;24.00;57.79;99980.97;2082174;28;19963;-53
2022/06/07 04:42:52;;;;;;;;;;;;;;;23.99;57.67;99985.63;2086711;28;19999;-53
2022/06/07 04:43:53;;;;;;;;;;;;;;;24.00;57.78;99986.47;2087335;28;19923;-53
2022/06/07 04:44:53;;;;;;;;;;;;;;;24.00;57.73;99980.97;2093636;28;19915;-53
2022/06/07 04:46:01;;;;;;;;;;;;;;;23.99;57.64;99974.59;2095093;28;20072;-53
2022/06/07 04:47:02;;;;;;;;;;;;;;;23.99;57.70;99976.50;2094000;28;19919;-50
2022/06/07 04:48:03;;;;;;;;;;;;;;;23.99;57.82;99977.34;2094353;28;19944;-52
2022/06/07 04:49:04;;;;;;;;;;;;;;;23.99;57.56;99977.34;2094585;28;19909;-53
2022/06/07 04:50:05;;;;;;;;;;;;;;;23.99;57.48;99973.75;2090141;28;19915;-53
2022/06/07 04:51:09;;;;;;;;;;;;;;;23.99;57.66;99973.75;2085877;28;20075;-52
2022/06/07 04:52:09;;;;;;;;;;;;;;;23.99;57.61;99980.09;2093076;28;19932;-52
2022/06/07 04:53:10;;;;;;;;;;;;;;;23.98;57.52;99981.13;2095089;28;20313;-53
2022/06/07 04:54:10;;;;;;;;;;;;;;;23.99;57.60;99982.88;2093354;28;19985;-53
2022/06/07 04:55:11;;;;;;;;;;;;;;;23.99;57.60;99979.25;2094810;28;19991;-53
2022/06/07 04:56:14;;;;;;;;;;;;;;;23.99;57.62;99982.88;2086777;28;19974;-53
2022/06/07 04:57:14;;;;;;;;;;;;;;;24.00;57.47;99980.97;2086692;28;19917;-51
2022/06/07 04:58:14;;;;;;;;;;;;;;;23.99;57.54;99990.28;2091448;28;19916;-53
2022/06/07 04:59:14;;;;;;;;;;;;;;;23.99;57.45;99985.63;2093510;28;19916;-53
2022/06/07 05:00:15;;;;;;;;;;;;;;;23.99;57.60;99987.53;2094834;28;19916;-54
2022/06/07 05:01:27;;;;;;;;;;;;;;;23.98;57.55;99986.63;2096520;28;20024;-50
2022/06/07 05:02:28;;;;;;;;;;;;;;;23.99;57.58;99993.03;2102377;28;19919;-50
2022/06/07 05:03:28;;;;;;;;;;;;;;;23.99;57.58;99984.75;2087323;28;19917;-51
2022/06/07 05:04:28;;;;;;;;;;;;;;;23.99;57.52;99984.75;2087797;28;20411;-52
2022/06/07 05:05:29;;;;;;;;;;;;;;;23.99;57.62;99993.03;2095362;28;20457;-52
2022/06/07 05:06:34;;;;;;;;;;;;;;;23.98;57.53;99989.38;2087842;28;19917;-52
2022/06/07 05:07:34;;;;;;;;;;;;;;;23.98;57.66;99988.53;2087862;28;19917;-54
2022/06/07 05:08:35;;;;;;;;;;;;;;;23.98;57.57;99988.53;2094645;28;19919;-53
2022/06/07 05:09:35;;;;;;;;;;;;;;;23.98;57.69;99994.03;2089198;28;19994;-53
2022/06/07 05:10:38;;;;;;;;;;;;;;;23.98;57.66;99994.03;2095108;28;19912;-53
2022/06/07 05:11:39;;;;;;;;;;;;;;;23.97;57.67;99998.69;2093777;28;20327;-53
2022/06/07 05:12:39;;;;;;;;;;;;;;;23.97;57.71;99993.19;2093820;28;20016;-52
2022/06/07 05:13:40;;;;;;;;;;;;;;;23.96;57.61;99992.34;2086239;28;19984;-53
2022/06/07 05:14:41;;;;;;;;;;;;;;;23.96;57.47;99986.84;2091751;28;19913;-53
2022/06/07 05:15:41;;;;;;;;;;;;;;;23.96;57.56;99992.34;2095421;28;20230;-53
2022/06/07 05:16:42;;;;;;;;;;;;;;;23.95;57.63;99985.09;2093291;28;19938;-53
2022/06/07 05:17:42;;;;;;;;;;;;;;;23.96;57.62;99997.84;2093571;28;19927;-52
2022/06/07 05:18:42;;;;;;;;;;;;;;;23.95;57.63;99990.63;2094899;28;20298;-53
2022/06/07 05:19:43;;;;;;;;;;;;;;;23.95;57.69;99990.63;2088912;28;19917;-52
2022/06/07 05:20:43;;;;;;;;;;;;;;;23.95;57.80;99998.88;2089274;28;20111;-53
2022/06/07 05:21:44;;;;;;;;;;;;;;;23.94;57.58;99990.81;2093768;28;20291;-52
2022/06/07 05:22:44;;;;;;;;;;;;;;;23.95;57.66;99998.88;2093402;28;20003;-52
2022/06/07 05:23:45;;;;;;;;;;;;;;;23.94;57.73;99994.44;2092850;28;20346;-52
2022/06/07 05:24:45;;;;;;;;;;;;;;;23.95;57.70;99998.88;2093364;28;19965;-52